Etusivu
METAR-TAF:

METAR-TAF

Lentoasemat :

Washington, Pennsylvania, Yhdysvallat

Leveyspiiri: 40-08N, Pituuspiiri: 080-17W, korkeus merenpinnasta: 361 m

Tämänhetkinen sää

Tämä raportti tehtiin 38 minuuttia sitten, kello 15.56 UTC
Tuuli 14 kn lännestä/lounaasta puuskistuen 23 kn:hen
Lämpötila 26°C
Kosteus 61%
Ilmanpaine 1011 hPa
Näkyvyys: 16.1 km
Hajanaisia pilviä 7000 ft:n korkeudessa

METAR: KAFJ 031556Z AUTO 24014G23KT 10SM SCT070 26/18 A2984 RMK AO2 SLP095 T02610183

Aika: 12:34 (16:34 UTC)


TAF: puuttuu

Säähavainnot ja -ennusteet yli 4000 lentoasemalta (METAR- ja TAF-raportit).

Käytössä olevat sääasemat on merkitty karttaan keltaisilla ja punaisilla pisteillä.

Aseta hiiri pisteen päälle nähdäksesi sääaseman nimen.

Klikkaa sitten nähdäksesi säähavainnot ja -ennusteet.

Kartan vaihtaminen: klikkaa mustalla rastilla varustettuja vihreitä pisteitä, niin voit zoomata sisään; viivalla varustettua vihreää pistettä, niin voit zoomata ulos tai vihreitä nuolia, niin pääset viereisille kartoille.


METAR-TAF: